Terminal Aerodrome Forecast
Issued by NWS

Home | Current Version | Previous Version | Graphics & Text | Print | Product List | Glossary On
Versions: 1 2 3 4 5 6 7 8 9 10 11 12 13
636
FTUS43 KTOP 201132
TAFFOE
TAF
KFOE 201132Z 2012/2112 17009KT P6SM VCSH OVC035
      TEMPO 2013/2016 OVC015
     FM201600 20012KT P6SM SCT070
     FM210000 24006KT P6SM SCT200
     FM210600 32007KT P6SM SKC=

USA.gov is the U.S. government's official web portal to all federal, state and local government web resources and services.